Time;durP1;ratioP1;P1;durP2;ratioP2;P2;SDS_P1;SDS_P2;PMS_P1;PMS_P2;Temp;Humidity;BMP_temperature;BMP_pressure;BME280_temperature;BME280_humidity;BME280_pressure;Samples;Min_cycle;Max_cycle;Signal;HPM_P1;HPM_P2
2021/10/25 00:01:15;;;;;;;3.78;3.47;;;7.50;99.90;;;;;;4865896;29;20068;-89
2021/10/25 00:03:42;;;;;;;4.75;4.35;;;7.40;99.90;;;;;;4877835;29;20045;-88
2021/10/25 00:06:26;;;;;;;3.60;3.30;;;7.40;99.90;;;;;;4770522;30;20066;-83
2021/10/25 00:09:45;;;;;;;4.30;4.00;;;7.40;99.90;;;;;;4771035;30;20055;-91
2021/10/25 00:12:40;;;;;;;4.20;3.90;;;7.20;99.90;;;;;;4756134;30;20204;-91
2021/10/25 00:15:49;;;;;;;4.25;3.95;;;7.10;99.90;;;;;;4760037;30;20155;-90
2021/10/25 00:19:27;;;;;;;4.57;4.18;;;7.30;99.90;;;;;;4756373;30;20058;-89
2021/10/25 00:22:12;;;;;;;7.93;4.97;;;7.30;99.90;;;;;;4772256;29;20042;-92
2021/10/25 00:25:13;;;;;;;4.75;4.35;;;7.10;99.90;;;;;;4741731;30;20058;-89
2021/10/25 00:27:44;;;;;;;3.92;3.63;;;7.10;99.90;;;;;;4849238;29;20053;-87
2021/10/25 00:30:12;;;;;;;4.22;3.92;;;7.20;99.90;;;;;;4863599;29;20087;-89
2021/10/25 00:32:40;;;;;;;4.68;4.28;;;7.00;99.90;;;;;;4831377;29;20050;-87
2021/10/25 00:35:09;;;;;;;3.97;3.67;;;7.10;99.90;;;;;;4846748;29;20058;-88
2021/10/25 00:37:52;;;;;;;5.03;4.60;;;7.10;99.90;;;;;;4831109;29;20082;-85
2021/10/25 00:40:20;;;;;;;7.20;6.50;;;6.90;99.90;;;;;;4845711;29;20061;-86
2021/10/25 00:47:57;;;;;;;4.05;3.75;;;7.10;99.90;;;;;;4845992;29;20448;-86
2021/10/25 00:50:28;;;;;;;5.82;5.28;;;7.00;99.90;;;;;;4846254;29;20585;-86
2021/10/25 00:53:14;;;;;;;7.03;6.47;;;6.90;99.90;;;;;;4891906;23;20424;-87
2021/10/25 00:55:41;;;;;;;3.78;3.47;;;7.00;99.90;;;;;;4901314;29;20116;-92
2021/10/25 00:58:09;;;;;;;6.78;6.15;;;7.00;99.90;;;;;;4867951;29;20512;-91
2021/10/25 01:00:37;;;;;;;5.00;4.60;;;6.90;99.90;;;;;;4868029;29;20132;-90
2021/10/25 01:03:07;;;;;;;3.95;3.65;;;6.80;99.90;;;;;;4897963;29;20052;-89
2021/10/25 01:08:59;;;;;;;3.72;3.42;;;6.90;99.90;;;;;;4934827;23;20104;-89
2021/10/25 01:12:10;;;;;;;9.18;8.32;;;6.80;99.90;;;;;;4890660;29;20057;-89
2021/10/25 01:15:04;;;;;;;4.00;3.70;;;6.90;99.90;;;;;;4868798;29;20041;-88
2021/10/25 01:17:34;;;;;;;4.50;4.15;;;6.80;99.90;;;;;;4868015;29;20056;-89
2021/10/25 01:20:06;;;;;;;3.88;3.58;;;6.80;99.90;;;;;;4866386;29;20446;-89
2021/10/25 01:22:37;;;;;;;4.43;4.05;;;6.70;99.90;;;;;;4898894;29;20052;-89
2021/10/25 01:25:08;;;;;;;5.28;4.88;;;6.80;99.90;;;;;;4867776;29;20108;-88
2021/10/25 01:28:01;;;;;;;3.72;3.42;;;6.80;99.90;;;;;;4899155;29;20052;-91
2021/10/25 01:30:38;;;;;;;5.13;4.72;;;6.60;99.90;;;;;;4867718;29;20139;-87
2021/10/25 01:33:15;;;;;;;4.35;3.95;;;6.60;99.90;;;;;;4883737;29;20449;-91
2021/10/25 01:35:51;;;;;;;6.13;5.65;;;6.80;99.90;;;;;;4868508;29;20052;-90
2021/10/25 01:38:22;;;;;;;4.07;3.70;;;6.80;99.90;;;;;;4868325;29;20509;-88
2021/10/25 01:40:53;;;;;;;5.60;5.10;;;6.90;99.90;;;;;;4867861;29;20143;-89
2021/10/25 01:43:21;;;;;;;4.65;4.25;;;6.80;99.90;;;;;;4898437;29;20450;-87
2021/10/25 01:45:58;;;;;;;4.22;3.92;;;6.80;99.90;;;;;;4867922;29;20074;-89
2021/10/25 01:48:38;;;;;;;4.43;4.05;;;6.70;99.90;;;;;;4866400;29;20140;-87
2021/10/25 01:51:54;;;;;;;10.98;7.15;;;6.80;99.90;;;;;;4872440;29;20051;-88
2021/10/25 01:54:27;;;;;;;3.90;3.60;;;6.60;99.90;;;;;;4867113;29;20104;-90
2021/10/25 01:57:58;;;;;;;4.15;3.85;;;6.50;99.90;;;;;;4898739;29;20056;-90
2021/10/25 02:01:23;;;;;;;7.05;6.43;;;6.40;99.90;;;;;;4883275;29;20048;-91
2021/10/25 02:03:51;;;;;;;4.57;4.22;;;6.40;99.90;;;;;;4885704;29;20454;-91
2021/10/25 02:06:36;;;;;;;4.88;4.32;;;6.40;99.90;;;;;;4886791;29;20086;-89
2021/10/25 02:16:56;;;;;;;4.18;3.88;;;6.60;99.90;;;;;;4881569;29;20100;-88
2021/10/25 02:19:27;;;;;;;3.92;3.63;;;6.40;99.90;;;;;;4866166;29;20056;-88
2021/10/25 02:21:57;;;;;;;4.10;3.80;;;6.50;99.90;;;;;;4866307;29;20075;-87
2021/10/25 02:24:40;;;;;;;4.75;4.35;;;6.60;99.90;;;;;;4865684;29;20135;-89
2021/10/25 02:27:11;;;;;;;3.85;3.55;;;6.50;99.90;;;;;;4866885;29;20076;-90
2021/10/25 02:29:44;;;;;;;3.90;3.60;;;6.40;99.90;;;;;;4866904;29;20133;-90
2021/10/25 02:32:37;;;;;;;4.68;4.28;;;6.40;99.90;;;;;;4872877;29;20048;-88
2021/10/25 02:35:27;;;;;;;4.32;4.00;;;6.40;99.90;;;;;;4873722;29;20139;-88
2021/10/25 02:37:58;;;;;;;4.20;3.90;;;6.30;99.90;;;;;;4888533;29;20052;-90
2021/10/25 02:40:39;;;;;;;3.85;3.55;;;6.00;99.90;;;;;;4872502;29;20068;-90
2021/10/25 02:43:08;;;;;;;4.50;4.10;;;6.10;99.90;;;;;;4872543;29;20052;-90
2021/10/25 02:45:51;;;;;;;4.07;3.78;;;6.30;99.90;;;;;;4873515;29;20135;-90
2021/10/25 02:48:18;;;;;;;3.83;3.53;;;6.30;99.90;;;;;;4873839;29;20052;-90
2021/10/25 02:50:55;;;;;;;3.90;3.60;;;6.30;99.90;;;;;;4872553;29;20060;-92
2021/10/25 02:53:23;;;;;;;5.72;5.25;;;6.30;99.90;;;;;;4872779;29;20072;-88
2021/10/25 02:56:21;;;;;;;4.10;3.80;;;6.30;99.90;;;;;;4873672;29;20044;-89
2021/10/25 02:59:38;;;;;;;4.00;3.70;;;6.20;99.90;;;;;;4871204;29;20052;-87
2021/10/25 03:02:32;;;;;;;3.90;3.60;;;6.10;99.90;;;;;;4871341;29;20059;-90
2021/10/25 03:05:05;;;;;;;4.13;3.83;;;6.20;99.90;;;;;;4871349;29;20053;-89
2021/10/25 03:07:33;;;;;;;3.78;3.47;;;6.20;99.90;;;;;;4871164;29;20052;-88
2021/10/25 03:13:44;;;;;;;4.00;3.70;;;6.30;99.90;;;;;;4907087;29;20052;-89
2021/10/25 03:16:15;;;;;;;3.85;3.55;;;6.20;99.90;;;;;;4892028;29;20063;-88
2021/10/25 03:18:42;;;;;;;4.45;4.15;;;6.20;99.90;;;;;;4891809;29;20126;-89
2021/10/25 03:21:10;;;;;;;4.10;3.80;;;6.30;99.90;;;;;;4891325;29;20079;-89
2021/10/25 03:23:38;;;;;;;3.85;3.55;;;6.40;99.90;;;;;;4891916;29;20111;-90
2021/10/25 03:26:17;;;;;;;4.68;4.28;;;6.20;99.90;;;;;;4891497;29;20047;-88
2021/10/25 03:28:45;;;;;;;4.95;4.55;;;5.80;99.90;;;;;;4906718;29;20151;-87
2021/10/25 03:31:12;;;;;;;4.20;3.90;;;5.90;99.90;;;;;;4891594;29;20115;-85
2021/10/25 03:33:40;;;;;;;3.90;3.60;;;5.20;99.90;;;;;;4922962;29;20051;-86
2021/10/25 03:36:08;;;;;;;4.35;4.05;;;4.80;99.90;;;;;;4906137;29;20108;-85
2021/10/25 03:38:38;;;;;;;4.65;4.25;;;5.10;99.90;;;;;;4891115;29;20107;-89
2021/10/25 04:04:17;;;;;;;4.65;4.25;;;5.90;99.90;;;;;;4902569;29;20059;-88
2021/10/25 04:41:26;;;;;;;4.10;3.80;;;6.70;99.90;;;;;;5451319;23;20104;-86
2021/10/25 04:44:15;;;;;;;3.85;3.55;;;6.80;99.90;;;;;;4912770;29;20040;-86
2021/10/25 04:46:43;;;;;;;4.10;3.80;;;6.50;99.90;;;;;;4867333;29;20095;-83
2021/10/25 04:49:13;;;;;;;3.97;3.67;;;6.70;99.90;;;;;;4913602;29;20041;-88
2021/10/25 04:51:40;;;;;;;3.90;3.60;;;7.20;99.90;;;;;;4899237;29;20052;-89
2021/10/25 04:54:08;;;;;;;3.92;3.63;;;7.30;99.90;;;;;;4902947;29;20039;-83
2021/10/25 04:56:38;;;;;;;4.60;3.78;;;7.10;99.90;;;;;;4876230;29;20059;-85
2021/10/25 04:59:07;;;;;;;4.20;3.90;;;6.90;99.90;;;;;;4890707;29;20446;-84
2021/10/25 05:01:38;;;;;;;4.88;4.47;;;6.20;99.90;;;;;;4894281;29;20048;-87
2021/10/25 05:04:40;;;;;;;3.80;3.50;;;6.40;99.90;;;;;;4904957;29;20058;-87
2021/10/25 05:07:34;;;;;;;3.80;3.50;;;6.50;99.90;;;;;;4904906;29;20051;-89
2021/10/25 05:10:09;;;;;;;4.88;4.47;;;6.30;99.90;;;;;;4884359;29;20049;-89
2021/10/25 05:12:37;;;;;;;3.70;3.40;;;6.60;99.90;;;;;;4882231;29;20040;-88
2021/10/25 05:15:06;;;;;;;3.78;3.47;;;6.20;99.90;;;;;;4882919;29;20116;-81
2021/10/25 05:17:35;;;;;;;5.18;4.78;;;5.70;99.90;;;;;;4881201;29;20062;-83
2021/10/25 05:20:03;;;;;;;5.35;4.95;;;5.50;99.90;;;;;;4881638;29;20128;-87
2021/10/25 05:22:33;;;;;;;4.15;3.85;;;5.70;99.90;;;;;;4882535;29;20033;-92
2021/10/25 05:25:01;;;;;;;3.80;3.50;;;5.80;99.90;;;;;;4871607;29;20453;-91
2021/10/25 05:27:35;;;;;;;3.95;3.65;;;5.60;99.90;;;;;;4900682;29;20051;-90
2021/10/25 05:30:04;;;;;;;3.80;3.50;;;5.70;99.90;;;;;;4884750;29;20102;-87
2021/10/25 05:33:23;;;;;;;3.75;3.45;;;6.10;99.90;;;;;;4901832;29;20400;-92
2021/10/25 05:36:33;;;;;;;4.22;3.92;;;6.40;99.90;;;;;;4888592;29;20055;-90
2021/10/25 05:39:00;;;;;;;4.15;3.85;;;6.60;99.90;;;;;;4886591;29;20052;-90
2021/10/25 05:41:29;;;;;;;3.70;3.40;;;6.80;99.90;;;;;;4883604;29;20525;-90
2021/10/25 05:44:09;;;;;;;5.43;5.03;;;6.80;99.90;;;;;;4902499;29;20052;-91
2021/10/25 05:46:40;;;;;;;4.00;3.70;;;6.80;99.90;;;;;;4894007;29;20043;-83
2021/10/25 05:49:08;;;;;;;3.70;3.40;;;7.00;99.90;;;;;;4900165;29;20051;-89
2021/10/25 05:51:43;;;;;;;20.73;5.45;;;6.90;99.90;;;;;;4920060;29;20127;-87
2021/10/25 05:54:20;;;;;;;3.70;3.40;;;6.80;99.90;;;;;;4921684;29;20522;-89
2021/10/25 05:56:48;;;;;;;4.07;3.78;;;6.70;99.90;;;;;;4885760;29;20048;-85
2021/10/25 05:59:15;;;;;;;4.00;3.70;;;6.90;99.90;;;;;;4885725;29;20059;-91
2021/10/25 06:09:01;;;;;;;4.70;4.30;;;7.40;99.90;;;;;;4903384;23;20060;-90
2021/10/25 06:11:30;;;;;;;3.75;3.45;;;7.50;99.90;;;;;;4867042;29;20495;-91
2021/10/25 06:14:03;;;;;;;3.60;3.30;;;7.60;99.90;;;;;;4888814;23;20063;-89
2021/10/25 06:17:26;;;;;;;4.32;4.03;;;7.50;99.90;;;;;;4882105;29;20052;-88
2021/10/25 06:20:22;;;;;;;;;;;;;;;;;;;;;
2021/10/25 06:22:54;;;;;;;3.90;3.60;;;7.80;99.90;;;;;;4896286;29;20048;-90
2021/10/25 06:25:23;;;;;;;4.40;4.07;;;7.90;99.90;;;;;;4865842;29;20056;-91
2021/10/25 06:28:07;;;;;;;4.07;3.78;;;7.90;99.90;;;;;;4864962;29;20048;-87
2021/10/25 06:38:55;;;;;;;3.67;3.38;;;7.70;99.90;;;;;;4821702;29;20058;-90
2021/10/25 06:42:27;;;;;;;3.63;3.33;;;7.90;99.90;;;;;;4807084;29;20050;-91
2021/10/25 06:44:56;;;;;;;3.75;3.45;;;8.20;99.90;;;;;;4809254;29;20118;-91
2021/10/25 06:47:24;;;;;;;4.75;4.35;;;8.40;99.90;;;;;;4808911;29;20058;-91
2021/10/25 06:49:52;;;;;;;3.78;3.47;;;8.50;99.90;;;;;;4808242;29;20149;-90
2021/10/25 06:52:25;;;;;;;3.53;3.22;;;8.30;99.90;;;;;;4809860;29;20433;-89
2021/10/25 06:54:53;;;;;;;4.72;4.32;;;8.40;99.90;;;;;;4808695;29;20066;-91
2021/10/25 06:57:41;;;;;;;3.50;3.20;;;8.30;99.90;;;;;;4814149;29;20050;-88
2021/10/25 07:07:58;;;;;;;;;;;8.70;99.90;;;;;;5483785;23;20120;-91
2021/10/25 07:13:50;;;;;;;3.00;2.80;;;8.90;99.90;;;;;;5026643;23;20106;-88
2021/10/25 07:16:36;;;;;;;3.20;3.00;;;9.10;99.90;;;;;;4896078;29;20044;-90
2021/10/25 08:11:01;;;;;;;3.65;3.20;;;9.90;99.90;;;;;;4840672;29;20057;-89
2021/10/25 08:14:18;;;;;;;3.38;3.15;;;10.30;99.90;;;;;;4824096;29;20148;-90
2021/10/25 08:19:24;;;;;;;3.15;2.95;;;10.50;99.90;;;;;;4809085;29;20141;-90
2021/10/25 08:22:41;;;;;;;4.55;4.15;;;10.60;99.90;;;;;;4825414;23;20046;-88
2021/10/25 08:25:12;;;;;;;3.72;3.45;;;10.80;99.90;;;;;;4845026;29;20045;-88
2021/10/25 08:27:42;;;;;;;;;;;11.00;99.90;;;;;;4847956;29;20097;-91
2021/10/25 08:31:13;;;;;;;2.60;2.40;;;11.10;99.90;;;;;;4847323;29;19968;-91
2021/10/25 08:33:50;;;;;;;3.22;3.03;;;11.20;99.90;;;;;;4863288;29;20046;-92
2021/10/25 08:36:21;;;;;;;3.22;3.00;;;10.80;99.90;;;;;;4862850;29;20061;-89
2021/10/25 08:41:35;;;;;;;2.70;2.50;;;11.00;99.90;;;;;;4847383;29;20050;-89
2021/10/25 08:44:58;;;;;;;3.42;3.17;;;10.80;99.90;;;;;;4861662;29;20202;-90
2021/10/25 08:48:18;;;;;;;2.95;2.75;;;11.00;99.90;;;;;;4860577;29;20082;-90
2021/10/25 08:51:07;;;;;;;3.00;2.80;;;11.30;99.90;;;;;;4861452;29;20053;-88
2021/10/25 08:54:25;;;;;;;4.90;3.88;;;11.40;99.90;;;;;;4859542;29;20105;-85
2021/10/25 08:57:03;;;;;;;3.20;2.97;;;12.60;99.90;;;;;;4860687;29;20049;-87
2021/10/25 08:59:31;;;;;;;2.90;2.63;;;13.50;99.90;;;;;;4845459;29;20049;-88
2021/10/25 09:02:50;;;;;;;2.72;2.53;;;13.90;99.90;;;;;;4845937;29;20049;-88
2021/10/25 09:05:21;;;;;;;2.63;2.42;;;14.40;99.80;;;;;;4845690;29;20108;-90
2021/10/25 09:08:03;;;;;;;2.63;2.42;;;14.90;99.80;;;;;;4862022;29;20038;-88
2021/10/25 09:11:21;;;;;;;2.10;2.00;;;15.10;98.40;;;;;;4860493;29;20612;-87
2021/10/25 09:13:49;;;;;;;2.42;2.22;;;15.10;97.30;;;;;;4844761;29;20053;-87
2021/10/25 09:16:17;;;;;;;2.65;2.45;;;15.20;96.60;;;;;;4860285;29;20403;-87
2021/10/25 09:18:47;;;;;;;2.90;2.50;;;15.90;97.00;;;;;;4860350;29;20057;-88
2021/10/25 09:21:14;;;;;;;1.90;1.80;;;15.60;95.40;;;;;;4861135;29;20513;-90
2021/10/25 09:23:45;;;;;;;2.70;2.50;;;15.50;94.40;;;;;;4845570;29;20417;-88
2021/10/25 09:27:05;;;;;;;2.45;2.25;;;15.50;93.10;;;;;;4830397;29;20486;-88
2021/10/25 09:30:47;;;;;;;1.60;1.50;;;15.30;92.00;;;;;;4816550;29;20042;-89
2021/10/25 09:50:11;;;;;;;1.88;1.77;;;16.10;87.50;;;;;;4882364;29;20121;-89
2021/10/25 09:52:59;;;;;;;1.60;1.50;;;16.10;87.50;;;;;;4883178;29;20056;-90
2021/10/25 09:56:16;;;;;;;1.60;1.50;;;16.60;88.10;;;;;;4882704;29;20048;-84
2021/10/25 09:59:06;;;;;;;1.40;1.30;;;16.50;87.20;;;;;;4882491;29;20045;-88
2021/10/25 10:01:36;;;;;;;1.45;1.35;;;16.30;89.10;;;;;;4900469;29;20064;-90
2021/10/25 10:04:05;;;;;;;1.65;1.55;;;16.90;89.90;;;;;;4900621;29;20055;-90
2021/10/25 10:06:35;;;;;;;1.50;1.40;;;17.40;87.90;;;;;;4866589;29;20500;-89
2021/10/25 10:09:03;;;;;;;2.30;2.10;;;17.30;86.00;;;;;;4882858;29;20049;-90
2021/10/25 10:11:50;;;;;;;2.40;2.15;;;17.20;85.80;;;;;;4881147;29;20056;-89
2021/10/25 10:14:18;;;;;;;1.50;1.40;;;17.30;87.10;;;;;;4897863;29;20044;-88
2021/10/25 10:16:57;;;;;;;1.20;1.10;;;17.40;86.60;;;;;;4866248;29;20053;-90
2021/10/25 10:19:26;;;;;;;1.30;1.20;;;17.40;86.50;;;;;;4866817;29;20059;-90
2021/10/25 10:22:20;;;;;;;2.97;1.55;;;17.00;87.20;;;;;;4866718;29;20056;-91
2021/10/25 10:32:16;;;;;;;2.03;1.87;;;17.20;87.50;;;;;;4828282;23;1307382;-86
2021/10/25 10:34:48;;;;;;;1.02;1.02;;;18.00;86.00;;;;;;4852655;29;20045;-89
2021/10/25 10:37:23;;;;;;;1.35;1.25;;;17.70;85.20;;;;;;4864522;29;20085;-88
2021/10/25 10:40:22;;;;;;;1.10;1.10;;;17.80;85.90;;;;;;4864727;29;20060;-87
2021/10/25 10:43:25;;;;;;;1.40;1.30;;;17.50;86.30;;;;;;4857354;29;20036;-89
2021/10/25 10:46:19;;;;;;;1.60;1.50;;;17.60;87.60;;;;;;4896375;29;20068;-87
2021/10/25 10:49:02;;;;;;;1.20;1.10;;;17.80;86.50;;;;;;4871645;29;20055;-84
2021/10/25 10:51:33;;;;;;;1.77;1.48;;;17.90;83.60;;;;;;4881672;29;20048;-84
2021/10/25 10:54:09;;;;;;;;;;;17.70;84.60;;;;;;4885332;29;20118;-89
2021/10/25 10:56:52;;;;;;;1.48;1.38;;;17.50;85.90;;;;;;4869272;29;20360;-87
2021/10/25 10:59:56;;;;;;;1.67;1.58;;;17.90;84.70;;;;;;4853126;29;20053;-88
2021/10/25 11:02:59;;;;;;;1.77;1.67;;;17.40;84.60;;;;;;4866294;29;20052;-86
2021/10/25 11:05:50;;;;;;;1.17;1.10;;;17.90;84.00;;;;;;4850611;29;20057;-86
2021/10/25 11:08:24;;;;;;;;;;;18.10;84.70;;;;;;4866137;29;20124;-87
2021/10/25 11:14:47;;;;;;;1.25;1.15;;;18.70;82.00;;;;;;4917681;23;20056;-91
2021/10/25 11:19:55;;;;;;;1.48;1.38;;;18.80;81.70;;;;;;4901902;29;20044;-94
2021/10/25 11:22:34;;;;;;;1.00;1.00;;;18.80;82.30;;;;;;4902119;29;20463;-89
2021/10/25 11:25:10;;;;;;;1.25;1.15;;;19.00;81.00;;;;;;4899820;29;20060;-91
2021/10/25 11:27:53;;;;;;;2.25;2.05;;;19.50;80.80;;;;;;4901318;29;20049;-91
2021/10/25 11:30:20;;;;;;;1.00;1.00;;;19.60;79.50;;;;;;4900026;29;20048;-90
2021/10/25 11:40:10;;;;;;;0.90;0.90;;;20.00;77.70;;;;;;2753865;23;21014;-85
2021/10/25 11:45:35;;;;;;;1.33;1.23;;;18.50;78.20;;;;;;5399979;23;20044;-87
2021/10/25 11:59:28;;;;;;;1.00;1.00;;;19.10;76.80;;;;;;4880001;29;20517;-87
2021/10/25 12:02:10;;;;;;;1.17;1.15;;;18.90;76.20;;;;;;4850271;29;20056;-92
2021/10/25 12:04:43;;;;;;;;;;;18.40;76.00;;;;;;4880837;29;20055;-86
2021/10/25 12:07:41;;;;;;;1.02;1.02;;;18.30;77.30;;;;;;4872949;29;20313;-88
2021/10/25 12:10:34;;;;;;;1.77;1.67;;;18.70;78.50;;;;;;4898608;29;20059;-79
2021/10/25 12:13:08;;;;;;;1.40;1.30;;;18.50;75.70;;;;;;4900304;29;20047;-87
2021/10/25 12:16:09;;;;;;;1.60;1.50;;;18.20;76.20;;;;;;4871485;29;20056;-91
2021/10/25 12:18:37;;;;;;;1.00;1.00;;;18.20;76.60;;;;;;4886294;29;20090;-89
2021/10/25 12:21:10;;;;;;;1.00;1.00;;;18.10;76.40;;;;;;4868914;29;20392;-87
2021/10/25 12:23:48;;;;;;;3.45;1.75;;;18.40;76.70;;;;;;4899186;29;20084;-86
2021/10/25 12:26:16;;;;;;;1.00;1.00;;;18.90;76.00;;;;;;4897931;29;20089;-87
2021/10/25 12:28:44;;;;;;;1.30;1.20;;;20.60;72.40;;;;;;4883490;29;20043;-86
2021/10/25 12:31:26;;;;;;;1.10;1.10;;;23.50;65.90;;;;;;4884977;29;20736;-89
2021/10/25 12:34:07;;;;;;;1.00;1.00;;;26.30;60.20;;;;;;4860949;29;20355;-87
2021/10/25 12:36:42;;;;;;;1.00;1.00;;;25.40;56.20;;;;;;4863832;29;20048;-84
2021/10/25 12:39:15;;;;;;;0.90;0.90;;;25.80;56.40;;;;;;4860996;29;20041;-85
2021/10/25 12:45:12;;;;;;;0.70;0.70;;;24.80;55.70;;;;;;4862989;29;20049;-84
2021/10/25 12:48:06;;;;;;;0.70;0.70;;;25.70;54.20;;;;;;4878258;29;20048;-90
2021/10/25 12:50:36;;;;;;;1.48;1.27;;;26.50;53.60;;;;;;4865401;29;20140;-84
2021/10/25 12:53:10;;;;;;;0.90;0.90;;;25.60;53.70;;;;;;4863493;29;20136;-85
2021/10/25 12:55:39;;;;;;;0.80;0.80;;;26.40;52.70;;;;;;4882109;29;20060;-90
2021/10/25 12:58:27;;;;;;;0.50;0.50;;;24.40;54.60;;;;;;4881125;29;20446;-86
2021/10/25 13:00:55;;;;;;;0.57;0.57;;;22.90;57.90;;;;;;4880950;29;20045;-84
2021/10/25 13:03:29;;;;;;;0.73;0.73;;;21.60;59.90;;;;;;4880163;29;20053;-82
2021/10/25 13:06:09;;;;;;;0.93;0.93;;;21.90;60.30;;;;;;4864803;29;20053;-87
2021/10/25 13:08:38;;;;;;;0.68;0.68;;;21.90;60.90;;;;;;4864085;29;20045;-85
2021/10/25 13:11:25;;;;;;;1.15;1.05;;;22.80;59.80;;;;;;4880482;29;20092;-88
2021/10/25 13:14:13;;;;;;;0.98;0.98;;;22.50;60.70;;;;;;4859739;29;20049;-89
2021/10/25 13:16:48;;;;;;;0.90;0.90;;;21.30;61.80;;;;;;4862931;29;20116;-87
2021/10/25 13:19:18;;;;;;;0.77;0.77;;;21.60;60.70;;;;;;4878977;29;20400;-85
2021/10/25 13:21:47;;;;;;;0.80;0.80;;;21.40;61.30;;;;;;4880236;29;20505;-89
2021/10/25 13:24:14;;;;;;;0.82;0.82;;;20.90;62.20;;;;;;4848846;29;20049;-90
2021/10/25 13:26:48;;;;;;;0.75;0.75;;;20.80;63.10;;;;;;4879945;29;20049;-88
2021/10/25 13:29:24;;;;;;;1.27;1.17;;;20.40;64.20;;;;;;4864166;29;20072;-93
2021/10/25 13:31:52;;;;;;;1.90;1.80;;;20.10;64.10;;;;;;4849885;29;20401;-89
2021/10/25 13:34:33;;;;;;;1.30;1.20;;;19.70;65.30;;;;;;4856806;29;20418;-91
2021/10/25 13:37:01;;;;;;;0.80;0.80;;;19.10;66.10;;;;;;4862098;29;20102;-90
2021/10/25 13:39:34;;;;;;;1.00;1.00;;;19.30;66.80;;;;;;4847161;29;20125;-89
2021/10/25 13:42:01;;;;;;;1.10;1.10;;;19.20;66.60;;;;;;4861059;29;20046;-85
2021/10/25 13:44:47;;;;;;;0.90;0.90;;;19.30;66.60;;;;;;4833374;29;20121;-88
2021/10/25 13:47:16;;;;;;;0.95;0.95;;;19.60;66.20;;;;;;4886220;29;20088;-81
2021/10/25 13:49:50;;;;;;;1.08;1.08;;;19.00;67.20;;;;;;4886901;29;20136;-90
2021/10/25 13:52:43;;;;;;;1.20;1.10;;;19.10;67.30;;;;;;4889793;23;20109;-89
2021/10/25 13:55:16;;;;;;;1.00;1.00;;;19.00;67.20;;;;;;4877455;29;20095;-91
2021/10/25 13:57:45;;;;;;;1.95;1.85;;;19.00;66.80;;;;;;4864243;29;20033;-88
2021/10/25 14:00:17;;;;;;;1.25;1.15;;;18.80;67.60;;;;;;4880829;29;20084;-86
2021/10/25 14:02:45;;;;;;;1.30;1.20;;;19.50;67.50;;;;;;4952484;23;20399;-88
2021/10/25 14:05:19;;;;;;;1.00;1.00;;;19.30;66.00;;;;;;4889958;29;20391;-85
2021/10/25 14:07:47;;;;;;;1.60;1.50;;;19.20;66.00;;;;;;4903300;29;20092;-82
2021/10/25 14:10:33;;;;;;;0.98;0.98;;;19.10;66.40;;;;;;4903213;29;20111;-84
2021/10/25 14:13:08;;;;;;;1.40;1.30;;;19.20;65.50;;;;;;4889994;29;20040;-84
2021/10/25 14:15:45;;;;;;;1.00;1.00;;;18.90;66.60;;;;;;4875587;29;20067;-90
2021/10/25 14:18:14;;;;;;;1.10;1.10;;;18.60;66.70;;;;;;4873958;29;20047;-86
2021/10/25 14:20:42;;;;;;;1.60;1.50;;;18.40;66.80;;;;;;4906914;29;20036;-82
2021/10/25 14:23:22;;;;;;;1.00;1.00;;;18.70;66.70;;;;;;4875106;29;20096;-88
2021/10/25 14:25:49;;;;;;;1.45;1.35;;;18.30;67.30;;;;;;4887689;29;20052;-89
2021/10/25 14:28:17;;;;;;;1.10;1.10;;;18.50;67.10;;;;;;4874993;29;20518;-86
2021/10/25 14:31:04;;;;;;;1.50;1.40;;;18.70;67.10;;;;;;4875324;29;20570;-85
2021/10/25 14:33:51;;;;;;;1.13;1.10;;;18.60;66.30;;;;;;4893165;29;20044;-86
2021/10/25 14:36:27;;;;;;;1.20;1.15;;;18.80;66.60;;;;;;4876206;29;20048;-82
2021/10/25 14:39:48;;;;;;;1.30;1.20;;;18.40;67.20;;;;;;4881077;29;20044;-87
2021/10/25 14:42:26;;;;;;;1.30;1.20;;;18.50;67.00;;;;;;4922919;29;20147;-86
2021/10/25 14:53:49;;;;;;;1.30;1.20;;;18.10;66.80;;;;;;4886752;29;20135;-91
2021/10/25 14:56:17;;;;;;;1.55;1.45;;;17.90;66.50;;;;;;4919632;29;20058;-93
2021/10/25 14:58:44;;;;;;;1.50;1.40;;;17.60;67.00;;;;;;4901864;29;20054;-83
2021/10/25 15:01:12;;;;;;;1.60;1.50;;;17.10;68.30;;;;;;4909269;29;20087;-90
2021/10/25 15:04:13;;;;;;;1.70;1.60;;;16.70;69.90;;;;;;4886587;29;20056;-82
2021/10/25 15:06:40;;;;;;;1.75;1.65;;;16.40;70.60;;;;;;4917699;29;20815;-83
2021/10/25 15:09:11;;;;;;;1.63;1.52;;;16.20;71.10;;;;;;4890719;29;20461;-84
2021/10/25 15:12:04;;;;;;;1.70;1.60;;;15.90;73.40;;;;;;4887143;29;20044;-85
2021/10/25 15:14:40;;;;;;;1.75;1.65;;;15.80;74.10;;;;;;4906716;29;20040;-85
2021/10/25 15:17:11;;;;;;;1.77;1.67;;;15.90;74.40;;;;;;4890222;29;20066;-86
2021/10/25 15:19:48;;;;;;;1.80;1.70;;;15.80;75.20;;;;;;4884684;29;20447;-86
2021/10/25 15:22:19;;;;;;;1.70;1.60;;;15.70;74.70;;;;;;4889110;29;20036;-87
2021/10/25 15:24:54;;;;;;;2.13;1.92;;;15.60;75.80;;;;;;4897570;29;20398;-86
2021/10/25 15:27:30;;;;;;;2.38;2.17;;;15.30;78.00;;;;;;4907985;29;20056;-85
2021/10/25 15:29:58;;;;;;;2.25;2.08;;;15.10;78.60;;;;;;4897963;29;20868;-82
2021/10/25 15:32:28;;;;;;;1.90;1.80;;;15.10;78.50;;;;;;4908267;29;20040;-85
2021/10/25 15:34:58;;;;;;;2.53;2.33;;;15.10;79.10;;;;;;4884255;29;20059;-86
2021/10/25 15:37:28;;;;;;;2.30;2.10;;;14.90;79.70;;;;;;4892199;29;20060;-86
2021/10/25 15:40:41;;;;;;;2.10;2.00;;;14.80;80.90;;;;;;4907421;29;20040;-86
2021/10/25 15:43:26;;;;;;;2.10;2.00;;;14.80;81.30;;;;;;4910797;29;20036;-87
2021/10/25 15:46:11;;;;;;;2.50;2.30;;;14.70;81.60;;;;;;4903944;29;20055;-83
2021/10/25 15:48:54;;;;;;;5.20;4.78;;;14.70;83.10;;;;;;4927819;29;20412;-84
2021/10/25 15:51:39;;;;;;;2.88;2.67;;;14.70;84.80;;;;;;4896500;29;20051;-83
2021/10/25 15:54:09;;;;;;;2.88;2.67;;;14.70;86.90;;;;;;4903447;29;20224;-82
2021/10/25 15:56:36;;;;;;;4.38;3.20;;;14.70;86.50;;;;;;4928027;29;20073;-85
2021/10/25 15:59:03;;;;;;;2.40;2.20;;;14.50;85.80;;;;;;4895333;29;20048;-85
2021/10/25 16:01:36;;;;;;;3.38;3.05;;;14.30;86.70;;;;;;4893417;29;20058;-91
2021/10/25 16:04:06;;;;;;;2.20;2.10;;;14.30;86.90;;;;;;4900099;29;20044;-89
2021/10/25 16:06:43;;;;;;;2.92;2.72;;;14.20;87.70;;;;;;4887591;29;20083;-86
2021/10/25 16:09:13;;;;;;;2.50;2.30;;;14.10;88.90;;;;;;4896971;29;20088;-86
2021/10/25 16:11:46;;;;;;;3.50;3.25;;;13.90;90.50;;;;;;4904926;29;20134;-84
2021/10/25 16:14:38;;;;;;;3.38;3.13;;;13.80;91.20;;;;;;4917350;29;20047;-84
2021/10/25 16:17:10;;;;;;;2.92;2.72;;;13.90;91.40;;;;;;4907118;23;20091;-87
2021/10/25 16:19:46;;;;;;;2.80;2.60;;;13.80;91.70;;;;;;4867108;29;20033;-82
2021/10/25 16:22:15;;;;;;;2.58;2.38;;;13.60;92.90;;;;;;4848000;29;20052;-85
2021/10/25 16:24:56;;;;;;;2.80;2.60;;;13.60;93.40;;;;;;4882709;29;20493;-87
2021/10/25 16:27:40;;;;;;;2.47;2.28;;;13.40;94.20;;;;;;4868960;29;20053;-84
2021/10/25 16:30:10;;;;;;;2.60;2.40;;;13.30;95.30;;;;;;4883693;29;20459;-83
2021/10/25 16:32:38;;;;;;;3.55;3.05;;;13.00;96.30;;;;;;4873267;29;20131;-84
2021/10/25 16:35:06;;;;;;;3.55;3.25;;;13.10;97.80;;;;;;4885205;29;20068;-85
2021/10/25 16:37:37;;;;;;;;;;;13.20;97.80;;;;;;4898383;29;20646;-84
2021/10/25 16:40:08;;;;;;;3.15;2.85;;;13.20;98.00;;;;;;4898552;29;20286;-85
2021/10/25 16:42:37;;;;;;;3.38;3.13;;;13.10;99.00;;;;;;4868122;29;20049;-89
2021/10/25 16:45:05;;;;;;;3.88;3.58;;;13.10;99.90;;;;;;4867604;29;20048;-83
2021/10/25 16:47:41;;;;;;;3.15;2.95;;;13.30;99.90;;;;;;4889332;29;20040;-82
2021/10/25 16:50:15;;;;;;;3.95;3.65;;;13.30;99.90;;;;;;4888480;29;20040;-83
2021/10/25 16:55:45;;;;;;;5.37;4.97;;;13.20;99.90;;;;;;4775283;29;89198;-85
2021/10/25 17:03:54;;;;;;;3.10;2.90;;;13.10;99.90;;;;;;4918672;29;20111;-88
2021/10/25 17:09:35;;;;;;;3.10;2.90;;;12.70;99.90;;;;;;4892985;29;20052;-85
2021/10/25 17:12:10;;;;;;;3.40;3.13;;;12.60;99.90;;;;;;4886338;29;20062;-85
2021/10/25 17:14:50;;;;;;;3.15;2.95;;;12.70;99.90;;;;;;4915332;29;20047;-86
2021/10/25 17:17:17;;;;;;;3.40;3.10;;;12.50;99.90;;;;;;4884874;29;20552;-91
2021/10/25 17:19:45;;;;;;;3.33;3.05;;;12.40;99.90;;;;;;4891430;29;20067;-86
2021/10/25 17:22:32;;;;;;;3.97;3.67;;;12.50;99.90;;;;;;4892218;29;20052;-81
2021/10/25 17:25:03;;;;;;;5.32;4.22;;;13.10;99.90;;;;;;4931173;23;20114;-84
2021/10/25 17:27:32;;;;;;;7.53;5.45;;;13.30;99.90;;;;;;4929571;29;20126;-83
2021/10/25 17:31:09;;;;;;;3.72;3.42;;;13.40;99.90;;;;;;4946149;29;20109;-90
2021/10/25 17:33:43;;;;;;;3.58;3.28;;;13.20;99.90;;;;;;4946165;29;20067;-88
2021/10/25 17:36:14;;;;;;;4.57;4.25;;;13.20;99.90;;;;;;4943758;29;20035;-88
2021/10/25 17:39:03;;;;;;;4.43;4.13;;;13.30;99.90;;;;;;4924026;28;20043;-92
2021/10/25 17:42:11;;;;;;;3.13;2.92;;;13.30;99.90;;;;;;4945316;29;20053;-86
2021/10/25 17:44:44;;;;;;;3.95;2.72;;;12.60;99.90;;;;;;4958687;29;20062;-89
2021/10/25 17:47:44;;;;;;;2.97;2.78;;;13.10;99.90;;;;;;4944834;29;20047;-93
2021/10/25 17:50:26;;;;;;;4.18;3.88;;;12.80;99.90;;;;;;4931836;29;20058;-92
2021/10/25 17:53:21;;;;;;;4.32;4.03;;;13.30;99.90;;;;;;4895226;23;20057;-91